Time;durP1;ratioP1;P1;durP2;ratioP2;P2;SDS_P1;SDS_P2;PMS_P1;PMS_P2;Temp;Humidity;BMP_temperature;BMP_pressure;BME280_temperature;BME280_humidity;BME280_pressure;Samples;Min_cycle;Max_cycle;Signal;HPM_P1;HPM_P2
2023/05/13 00:04:30;;;;;;;1.80;1.45;;;;;;;;;;10312288;28;20022;-59
2023/05/13 00:09:30;;;;;;;1.40;1.30;;;;;;;;;;10312760;28;20034;-59
2023/05/13 00:14:31;;;;;;;1.52;1.27;;;;;;;;;;10312810;28;20186;-59
2023/05/13 00:19:31;;;;;;;2.47;1.52;;;;;;;;;;10323923;28;20019;-59
2023/05/13 00:24:32;;;;;;;1.88;1.45;;;;;;;;;;10299999;28;20089;-59
2023/05/13 00:29:32;;;;;;;2.00;1.50;;;;;;;;;;10325709;28;20130;-59
2023/05/13 00:34:33;;;;;;;1.88;1.58;;;;;;;;;;10322490;28;20466;-59
2023/05/13 00:39:34;;;;;;;2.08;1.50;;;;;;;;;;10313133;28;20540;-58
2023/05/13 00:44:34;;;;;;;2.03;1.83;;;;;;;;;;10304813;28;20407;-58
2023/05/13 00:49:35;;;;;;;2.85;1.50;;;;;;;;;;10303339;28;20030;-59
2023/05/13 00:54:36;;;;;;;2.63;1.48;;;;;;;;;;10298989;28;20106;-57
2023/05/13 00:59:36;;;;;;;1.35;1.25;;;;;;;;;;10294563;28;20034;-58
2023/05/13 01:04:55;;;;;;;2.10;1.52;;;;;;;;;;10307323;28;20019;-53
2023/05/13 01:09:56;;;;;;;;;;;;;;;;;;10320035;28;20285;-57
2023/05/13 01:15:07;;;;;;;1.83;1.40;;;;;;;;;;10304573;28;20138;-56
2023/05/13 01:20:08;;;;;;;1.50;1.40;;;;;;;;;;10298977;28;20062;-57
2023/05/13 01:25:09;;;;;;;1.92;1.50;;;;;;;;;;10318619;28;20443;-57
2023/05/13 01:30:10;;;;;;;1.98;1.52;;;;;;;;;;10306998;28;20039;-55
2023/05/13 01:35:12;;;;;;;2.03;1.27;;;;;;;;;;10292228;28;20109;-57
2023/05/13 01:40:13;;;;;;;1.42;1.33;;;;;;;;;;10305735;28;20027;-58
2023/05/13 01:45:14;;;;;;;2.90;1.50;;;;;;;;;;10305975;28;20478;-59
2023/05/13 01:50:15;;;;;;;3.80;1.25;;;;;;;;;;10306700;28;20042;-58
2023/05/13 01:55:16;;;;;;;1.40;1.30;;;;;;;;;;10292195;28;20430;-57
2023/05/13 02:00:16;;;;;;;1.23;1.10;;;;;;;;;;10292258;28;20054;-58
2023/05/13 02:05:17;;;;;;;1.45;1.30;;;;;;;;;;10309407;28;20096;-58
2023/05/13 02:10:18;;;;;;;2.08;1.23;;;;;;;;;;10292076;28;20035;-59
2023/05/13 02:15:18;;;;;;;1.40;1.30;;;;;;;;;;10303722;28;20030;-59
2023/05/13 02:20:19;;;;;;;1.23;1.10;;;;;;;;;;10304412;28;20022;-58
2023/05/13 02:25:20;;;;;;;1.70;1.30;;;;;;;;;;10290902;28;20175;-58
2023/05/13 02:30:20;;;;;;;1.50;1.30;;;;;;;;;;10303877;28;20031;-58
2023/05/13 02:35:21;;;;;;;3.28;1.42;;;;;;;;;;10290452;28;20494;-59
2023/05/13 02:40:22;;;;;;;3.05;1.40;;;;;;;;;;10311071;28;20087;-58
2023/05/13 02:45:22;;;;;;;1.23;1.13;;;;;;;;;;10294880;28;20050;-58
2023/05/13 02:50:23;;;;;;;1.38;1.27;;;;;;;;;;10310534;28;20030;-59
2023/05/13 02:55:24;;;;;;;1.55;1.23;;;;;;;;;;10311795;28;20485;-59
2023/05/13 03:00:24;;;;;;;2.83;1.25;;;;;;;;;;10312189;28;20394;-58
2023/05/13 03:05:25;;;;;;;5.22;1.35;;;;;;;;;;10290773;28;20038;-58
2023/05/13 03:10:25;;;;;;;1.30;1.20;;;;;;;;;;10291127;28;20287;-59
2023/05/13 03:15:26;;;;;;;1.30;1.20;;;;;;;;;;10301899;28;20031;-58
2023/05/13 03:20:27;;;;;;;3.17;1.23;;;;;;;;;;10301549;28;20027;-59
2023/05/13 03:25:27;;;;;;;1.25;1.10;;;;;;;;;;10301774;28;20486;-59
2023/05/13 03:30:28;;;;;;;2.38;1.20;;;;;;;;;;10300321;28;20034;-59
2023/05/13 03:35:29;;;;;;;1.20;1.10;;;;;;;;;;10290800;28;20398;-58
2023/05/13 03:40:29;;;;;;;3.17;1.30;;;;;;;;;;10289050;28;20101;-59
2023/05/13 03:45:30;;;;;;;1.58;1.38;;;;;;;;;;10288019;28;20047;-59
2023/05/13 03:50:30;;;;;;;3.10;1.70;;;;;;;;;;10293515;28;20434;-58
2023/05/13 03:55:31;;;;;;;1.25;1.00;;;;;;;;;;10301321;28;20027;-58
2023/05/13 04:00:32;;;;;;;1.63;1.10;;;;;;;;;;10292514;28;20023;-59
2023/05/13 04:05:32;;;;;;;1.58;1.20;;;;;;;;;;10302304;28;20085;-59
2023/05/13 04:10:33;;;;;;;1.55;1.02;;;;;;;;;;10299726;28;20027;-58
2023/05/13 04:15:33;;;;;;;1.60;1.20;;;;;;;;;;10292712;28;20069;-58
2023/05/13 04:20:38;;;;;;;2.03;1.20;;;;;;;;;;10295340;28;20442;-59
2023/05/13 04:25:39;;;;;;;1.20;1.10;;;;;;;;;;10321124;28;20031;-57
2023/05/13 04:30:41;;;;;;;3.20;1.20;;;;;;;;;;10295328;28;20055;-57
2023/05/13 04:35:42;;;;;;;2.63;1.50;;;;;;;;;;10307298;28;20422;-57
2023/05/13 04:40:43;;;;;;;1.85;1.17;;;;;;;;;;10308194;28;20026;-57
2023/05/13 04:45:46;;;;;;;1.20;1.10;;;;;;;;;;10296006;28;20062;-57
2023/05/13 04:50:47;;;;;;;1.73;1.30;;;;;;;;;;10310716;28;20489;-57
2023/05/13 04:55:49;;;;;;;1.38;1.27;;;;;;;;;;10308024;28;20034;-59
2023/05/13 05:00:49;;;;;;;1.30;1.23;;;;;;;;;;10298057;28;20018;-59
2023/05/13 05:05:50;;;;;;;3.22;1.38;;;;;;;;;;10305016;28;20030;-57
2023/05/13 05:10:50;;;;;;;5.18;1.45;;;;;;;;;;10317869;28;20042;-59
2023/05/13 05:15:51;;;;;;;2.40;1.20;;;;;;;;;;10315976;28;20029;-59
2023/05/13 05:20:52;;;;;;;1.58;1.20;;;;;;;;;;10320228;28;20023;-57
2023/05/13 05:25:52;;;;;;;3.08;1.25;;;;;;;;;;10339346;28;20090;-58
2023/05/13 05:30:53;;;;;;;1.10;1.00;;;;;;;;;;10317595;28;20030;-59
2023/05/13 05:35:53;;;;;;;1.73;1.35;;;;;;;;;;10318005;28;20090;-59
2023/05/13 05:40:54;;;;;;;1.92;1.20;;;;;;;;;;10329569;28;20397;-59
2023/05/13 05:45:55;;;;;;;1.77;1.27;;;;;;;;;;10299040;28;20282;-59
2023/05/13 05:50:56;;;;;;;1.30;1.20;;;;;;;;;;10307959;28;20089;-58
2023/05/13 05:55:56;;;;;;;1.50;1.00;;;;;;;;;;10307674;28;20027;-55
2023/05/13 06:00:59;;;;;;;1.13;1.02;;;;;;;;;;10309878;28;20057;-56
2023/05/13 06:06:00;;;;;;;1.20;1.10;;;;;;;;;;10314123;28;20198;-57
2023/05/13 06:11:00;;;;;;;0.93;0.90;;;;;;;;;;10308244;28;20171;-56
2023/05/13 06:16:01;;;;;;;1.17;0.90;;;;;;;;;;10313841;28;20094;-55
2023/05/13 06:21:02;;;;;;;0.80;0.80;;;;;;;;;;10313765;28;20037;-57
2023/05/13 06:26:03;;;;;;;1.63;0.90;;;;;;;;;;10317494;28;20026;-58
2023/05/13 06:31:03;;;;;;;2.58;1.00;;;;;;;;;;10310175;28;20039;-57
2023/05/13 06:36:04;;;;;;;1.92;1.10;;;;;;;;;;10318809;28;20494;-57
2023/05/13 06:41:05;;;;;;;0.70;0.70;;;;;;;;;;10311684;28;20042;-57
2023/05/13 06:46:06;;;;;;;1.58;0.90;;;;;;;;;;10322408;28;20046;-56
2023/05/13 06:51:06;;;;;;;1.80;1.00;;;;;;;;;;10314992;28;20042;-57
2023/05/13 06:56:07;;;;;;;0.73;0.73;;;;;;;;;;10313847;28;20126;-56
2023/05/13 07:01:08;;;;;;;2.13;0.88;;;;;;;;;;10313326;28;20478;-56
2023/05/13 07:06:09;;;;;;;2.90;0.90;;;;;;;;;;10313192;28;20038;-56
2023/05/13 07:11:09;;;;;;;0.90;0.90;;;;;;;;;;10301355;28;20113;-56
2023/05/13 07:16:10;;;;;;;1.85;1.00;;;;;;;;;;10311881;28;20459;-57
2023/05/13 07:21:10;;;;;;;1.13;0.88;;;;;;;;;;10311334;28;20501;-57
2023/05/13 07:26:11;;;;;;;1.10;0.80;;;;;;;;;;10311750;28;20100;-57
2023/05/13 07:31:12;;;;;;;1.27;1.00;;;;;;;;;;10321921;28;20033;-59
2023/05/13 07:36:12;;;;;;;0.80;0.80;;;;;;;;;;10324641;28;20105;-57
2023/05/13 07:41:13;;;;;;;2.72;1.10;;;;;;;;;;10322418;28;20457;-57
2023/05/13 07:46:14;;;;;;;1.05;0.80;;;;;;;;;;10333300;28;20050;-55
2023/05/13 07:51:17;;;;;;;1.52;0.90;;;;;;;;;;10320008;28;20062;-57
2023/05/13 07:56:17;;;;;;;0.90;0.90;;;;;;;;;;10333904;28;20027;-57
2023/05/13 08:01:18;;;;;;;6.82;1.27;;;;;;;;;;10327503;28;20061;-56
2023/05/13 08:06:19;;;;;;;4.03;1.45;;;;;;;;;;10326239;28;20041;-57
2023/05/13 08:11:20;;;;;;;2.90;1.00;;;;;;;;;;10323434;28;20034;-59
2023/05/13 08:16:21;;;;;;;12.75;1.38;;;;;;;;;;10296331;28;20031;-57
2023/05/13 08:21:21;;;;;;;2.83;1.13;;;;;;;;;;10309764;28;20043;-57
2023/05/13 08:26:22;;;;;;;4.63;1.55;;;;;;;;;;10307327;28;20532;-57
2023/05/13 08:31:24;;;;;;;7.22;1.52;;;;;;;;;;10319456;28;20040;-55
2023/05/13 08:36:25;;;;;;;10.02;1.42;;;;;;;;;;10305021;28;20121;-57
2023/05/13 08:41:27;;;;;;;7.68;1.35;;;;;;;;;;10295240;28;20490;-57
2023/05/13 08:46:31;;;;;;;13.35;1.33;;;;;;;;;;10316683;28;20157;-56
2023/05/13 08:51:31;;;;;;;15.00;1.95;;;;;;;;;;10307244;28;20410;-60
2023/05/13 08:56:34;;;;;;;10.23;1.63;;;;;;;;;;10351443;28;20026;-58
2023/05/13 09:01:35;;;;;;;15.45;1.83;;;;;;;;;;10327610;28;20447;-56
2023/05/13 09:06:36;;;;;;;6.38;1.50;;;;;;;;;;10319215;28;20045;-57
2023/05/13 09:11:38;;;;;;;2.97;1.40;;;;;;;;;;10309070;28;20494;-51
2023/05/13 09:16:40;;;;;;;3.75;1.63;;;;;;;;;;10322440;28;20056;-54
2023/05/13 09:21:43;;;;;;;3.17;1.70;;;;;;;;;;10318944;28;20501;-51
2023/05/13 09:26:45;;;;;;;7.43;1.35;;;;;;;;;;10325764;28;20025;-56
2023/05/13 09:31:49;;;;;;;2.75;1.08;;;;;;;;;;10326958;28;20030;-51
2023/05/13 09:37:03;;;;;;;3.10;1.48;;;;;;;;;;10327387;28;20260;-53
2023/05/13 09:42:04;;;;;;;4.45;1.40;;;;;;;;;;10320613;28;20061;-58
2023/05/13 09:47:04;;;;;;;4.22;1.15;;;;;;;;;;10311404;28;20053;-55
2023/05/13 09:52:10;;;;;;;3.22;1.23;;;;;;;;;;10308530;28;20097;-50
2023/05/13 09:57:13;;;;;;;2.63;1.35;;;;;;;;;;10312883;28;20541;-51
2023/05/13 10:02:16;;;;;;;2.42;1.38;;;;;;;;;;10298736;28;20125;-55
2023/05/13 10:07:23;;;;;;;2.83;1.30;;;;;;;;;;10314610;28;20026;-56
2023/05/13 10:12:25;;;;;;;2.78;1.42;;;;;;;;;;10302276;28;20564;-54
2023/05/13 10:17:26;;;;;;;2.95;1.17;;;;;;;;;;10287304;28;20634;-53
2023/05/13 10:22:29;;;;;;;4.25;1.45;;;;;;;;;;10304337;28;20230;-52
2023/05/13 10:27:32;;;;;;;3.13;1.27;;;;;;;;;;10316656;28;20086;-50
2023/05/13 10:32:35;;;;;;;1.58;1.10;;;;;;;;;;10326644;28;20510;-51
2023/05/13 10:38:15;;;;;;;2.60;1.40;;;;;;;;;;10318361;28;20442;-53
2023/05/13 10:43:36;;;;;;;1.50;1.05;;;;;;;;;;10322978;28;20043;-53
2023/05/13 10:48:53;;;;;;;1.10;1.00;;;;;;;;;;10305387;28;20041;-56
2023/05/13 10:53:57;;;;;;;2.70;1.30;;;;;;;;;;10296901;28;20470;-53
2023/05/13 10:59:02;;;;;;;3.22;1.17;;;;;;;;;;10311105;28;20053;-57
2023/05/13 11:04:04;;;;;;;1.88;0.98;;;;;;;;;;10292810;28;20027;-50
2023/05/13 11:09:14;;;;;;;1.13;0.90;;;;;;;;;;10318934;28;20044;-50
2023/05/13 11:14:26;;;;;;;2.17;1.15;;;;;;;;;;10329457;28;20062;-52
2023/05/13 11:19:45;;;;;;;2.70;1.00;;;;;;;;;;10323456;28;20030;-55
2023/05/13 11:25:05;;;;;;;2.05;1.30;;;;;;;;;;10311794;28;20095;-54
2023/05/13 11:30:20;;;;;;;1.55;1.10;;;;;;;;;;10316378;28;20034;-55
2023/05/13 11:35:31;;;;;;;2.03;1.10;;;;;;;;;;10324543;28;20109;-55
2023/05/13 11:40:35;;;;;;;3.15;1.20;;;;;;;;;;10312439;28;20031;-50
2023/05/13 11:45:39;;;;;;;1.50;1.20;;;;;;;;;;10312674;28;20158;-49
2023/05/13 11:50:39;;;;;;;3.90;1.20;;;;;;;;;;10310704;28;20047;-50
2023/05/13 11:55:40;;;;;;;1.77;1.05;;;;;;;;;;10308018;28;20019;-50
2023/05/13 12:00:40;;;;;;;1.70;1.15;;;;;;;;;;10292064;28;20444;-53
2023/05/13 12:05:43;;;;;;;1.55;1.00;;;;;;;;;;10300094;28;20031;-55
2023/05/13 12:10:44;;;;;;;4.72;1.92;;;;;;;;;;10299757;28;20033;-51
2023/05/13 12:15:45;;;;;;;3.95;1.30;;;;;;;;;;10287993;28;20069;-53
2023/05/13 12:20:45;;;;;;;2.70;1.10;;;;;;;;;;10293198;28;20052;-50
2023/05/13 12:25:49;;;;;;;1.45;1.05;;;;;;;;;;10302050;28;20030;-55
2023/05/13 12:31:04;;;;;;;1.83;0.90;;;;;;;;;;10294426;28;20483;-51
2023/05/13 12:36:35;;;;;;;3.15;1.35;;;;;;;;;;10322289;28;20540;-51
2023/05/13 12:41:38;;;;;;;2.22;1.10;;;;;;;;;;10328618;28;20376;-50
2023/05/13 12:46:53;;;;;;;16.83;1.27;;;;;;;;;;10321357;28;20042;-50
2023/05/13 12:51:55;;;;;;;1.35;1.10;;;;;;;;;;10314051;28;20138;-48
2023/05/13 12:56:56;;;;;;;3.40;1.20;;;;;;;;;;10302490;28;20066;-50
2023/05/13 13:01:56;;;;;;;4.15;1.27;;;;;;;;;;10311888;28;20035;-51
2023/05/13 13:06:57;;;;;;;5.00;2.00;;;;;;;;;;10326010;28;20030;-48
2023/05/13 13:11:57;;;;;;;7.47;1.25;;;;;;;;;;10315958;28;20077;-53
2023/05/13 13:16:58;;;;;;;4.15;1.45;;;;;;;;;;10318456;28;20202;-54
2023/05/13 13:21:58;;;;;;;6.00;1.50;;;;;;;;;;10319085;28;20114;-54
2023/05/13 13:26:59;;;;;;;5.35;1.20;;;;;;;;;;10309766;28;20030;-54
2023/05/13 13:32:00;;;;;;;4.38;1.20;;;;;;;;;;10322123;28;20093;-55
2023/05/13 13:37:00;;;;;;;2.80;1.25;;;;;;;;;;10302290;28;20482;-56
2023/05/13 13:42:04;;;;;;;1.45;1.02;;;;;;;;;;10295677;28;20366;-54
2023/05/13 13:47:05;;;;;;;1.20;1.00;;;;;;;;;;10309143;28;20458;-51
2023/05/13 13:52:05;;;;;;;2.85;1.08;;;;;;;;;;10311496;28;20030;-56
2023/05/13 13:57:06;;;;;;;1.92;1.17;;;;;;;;;;10306587;28;20026;-53
2023/05/13 14:02:07;;;;;;;4.07;1.15;;;;;;;;;;10328546;28;20137;-57
2023/05/13 14:07:07;;;;;;;3.97;1.27;;;;;;;;;;10324613;28;20034;-55
2023/05/13 14:12:08;;;;;;;6.22;1.40;;;;;;;;;;10310761;28;20031;-50
2023/05/13 14:17:09;;;;;;;4.20;1.20;;;;;;;;;;10306248;28;20451;-51
2023/05/13 14:22:10;;;;;;;1.73;1.27;;;;;;;;;;10313896;28;20041;-51
2023/05/13 14:27:10;;;;;;;6.78;1.60;;;;;;;;;;10323023;28;20069;-51
2023/05/13 14:32:11;;;;;;;1.17;1.02;;;;;;;;;;10323011;28;20053;-50
2023/05/13 14:37:12;;;;;;;2.95;1.23;;;;;;;;;;10316064;28;20018;-53
2023/05/13 14:42:12;;;;;;;4.03;1.40;;;;;;;;;;10328894;28;20026;-49
2023/05/13 14:47:13;;;;;;;6.05;1.20;;;;;;;;;;10308264;28;20034;-50
2023/05/13 14:52:14;;;;;;;3.05;1.10;;;;;;;;;;10307951;28;20046;-53
2023/05/13 14:57:15;;;;;;;3.65;1.10;;;;;;;;;;10292767;28;20039;-51
2023/05/13 15:02:16;;;;;;;2.55;1.23;;;;;;;;;;10303746;28;20038;-50
2023/05/13 15:07:16;;;;;;;2.55;1.17;;;;;;;;;;10297162;28;20038;-51
2023/05/13 15:12:17;;;;;;;1.75;1.33;;;;;;;;;;10300325;28;20034;-51
2023/05/13 15:17:18;;;;;;;5.30;1.33;;;;;;;;;;10304849;28;20030;-54
2023/05/13 15:22:19;;;;;;;5.18;1.20;;;;;;;;;;10311649;28;20026;-48
2023/05/13 15:27:19;;;;;;;2.22;1.27;;;;;;;;;;10313979;28;20033;-49
2023/05/13 15:32:20;;;;;;;4.10;1.42;;;;;;;;;;10305258;28;20039;-50
2023/05/13 15:37:20;;;;;;;5.60;1.25;;;;;;;;;;10319099;28;20026;-51
2023/05/13 15:42:21;;;;;;;1.92;1.25;;;;;;;;;;10303506;28;20496;-48
2023/05/13 15:47:22;;;;;;;2.00;1.33;;;;;;;;;;10305640;28;20045;-48
2023/05/13 15:52:23;;;;;;;3.45;1.13;;;;;;;;;;10308136;28;20033;-51
2023/05/13 15:57:23;;;;;;;2.53;1.00;;;;;;;;;;10323880;28;20026;-50
2023/05/13 16:02:24;;;;;;;4.18;1.30;;;;;;;;;;10324564;28;20478;-49
2023/05/13 16:07:24;;;;;;;1.10;1.00;;;;;;;;;;10320855;28;20390;-50
2023/05/13 16:12:25;;;;;;;3.70;1.30;;;;;;;;;;10309837;28;20037;-49
2023/05/13 16:17:26;;;;;;;1.15;1.00;;;;;;;;;;10330321;28;20096;-48
2023/05/13 16:22:29;;;;;;;3.65;1.00;;;;;;;;;;10329835;28;20031;-50
2023/05/13 16:27:31;;;;;;;6.30;1.63;;;;;;;;;;10322920;28;20042;-48
2023/05/13 16:32:32;;;;;;;2.72;1.10;;;;;;;;;;10308876;28;20037;-47
2023/05/13 16:37:34;;;;;;;1.85;1.25;;;;;;;;;;10315781;28;20044;-48
2023/05/13 16:42:34;;;;;;;4.13;1.60;;;;;;;;;;10304639;28;20050;-50
2023/05/13 16:47:35;;;;;;;2.72;1.33;;;;;;;;;;10311499;28;20026;-50
2023/05/13 16:52:36;;;;;;;1.13;1.00;;;;;;;;;;10339230;28;20041;-49
2023/05/13 16:57:36;;;;;;;4.07;1.42;;;;;;;;;;10315786;28;20034;-48
2023/05/13 17:02:37;;;;;;;7.65;1.40;;;;;;;;;;10314011;28;20019;-52
2023/05/13 17:07:38;;;;;;;6.22;2.05;;;;;;;;;;10324618;28;20029;-48
2023/05/13 17:12:38;;;;;;;4.35;1.13;;;;;;;;;;10328722;28;20019;-46
2023/05/13 17:17:39;;;;;;;6.22;1.52;;;;;;;;;;10321122;28;20018;-48
2023/05/13 17:22:44;;;;;;;5.15;1.73;;;;;;;;;;10339350;28;20030;-46
2023/05/13 17:27:45;;;;;;;4.78;1.60;;;;;;;;;;10299628;28;20062;-46
2023/05/13 17:32:45;;;;;;;7.43;2.08;;;;;;;;;;10315522;28;20034;-47
2023/05/13 17:37:46;;;;;;;4.85;1.63;;;;;;;;;;10312671;28;20034;-47
2023/05/13 17:42:47;;;;;;;11.10;1.45;;;;;;;;;;10321800;28;20055;-51
2023/05/13 17:47:47;;;;;;;4.47;1.70;;;;;;;;;;10332495;28;20250;-49
2023/05/13 17:52:48;;;;;;;8.93;1.63;;;;;;;;;;10301120;28;20019;-47
2023/05/13 17:57:49;;;;;;;5.85;2.08;;;;;;;;;;10312910;28;20026;-48
2023/05/13 18:02:51;;;;;;;14.55;1.85;;;;;;;;;;10329940;28;20136;-47
2023/05/13 18:07:51;;;;;;;9.52;2.00;;;;;;;;;;10318916;28;20031;-49
2023/05/13 18:12:52;;;;;;;10.57;1.95;;;;;;;;;;10315474;28;20462;-49
2023/05/13 18:17:52;;;;;;;4.65;1.80;;;;;;;;;;10325199;28;20026;-47
2023/05/13 18:22:53;;;;;;;4.45;2.38;;;;;;;;;;10327440;28;20463;-52
2023/05/13 18:27:54;;;;;;;4.32;1.73;;;;;;;;;;10327960;28;20565;-50
2023/05/13 18:32:54;;;;;;;6.88;1.77;;;;;;;;;;10327455;28;20065;-47
2023/05/13 18:37:55;;;;;;;6.95;2.03;;;;;;;;;;10326837;28;20042;-48
2023/05/13 18:42:55;;;;;;;6.72;1.60;;;;;;;;;;10326828;28;20047;-47
2023/05/13 18:47:56;;;;;;;6.05;2.08;;;;;;;;;;10327159;28;20042;-48
2023/05/13 18:52:57;;;;;;;10.75;1.52;;;;;;;;;;10297152;28;20034;-49
2023/05/13 18:57:57;;;;;;;3.95;1.50;;;;;;;;;;10299265;28;20258;-47
2023/05/13 19:02:58;;;;;;;7.85;1.98;;;;;;;;;;10297093;28;20032;-47
2023/05/13 19:07:59;;;;;;;4.90;1.88;;;;;;;;;;10302290;28;20026;-47
2023/05/13 19:13:00;;;;;;;3.45;1.65;;;;;;;;;;10296473;28;20035;-47
2023/05/13 19:18:00;;;;;;;1.85;1.52;;;;;;;;;;10307887;28;20031;-49
2023/05/13 19:23:01;;;;;;;4.07;1.75;;;;;;;;;;10305824;28;20428;-54
2023/05/13 19:28:01;;;;;;;4.25;1.50;;;;;;;;;;10297374;28;20031;-47
2023/05/13 19:33:03;;;;;;;4.70;2.08;;;;;;;;;;10293367;28;20089;-48
2023/05/13 19:38:04;;;;;;;10.65;2.00;;;;;;;;;;10301474;28;20026;-48
2023/05/13 19:43:05;;;;;;;3.25;1.70;;;;;;;;;;10317783;23;20069;-49
2023/05/13 19:48:06;;;;;;;5.38;1.77;;;;;;;;;;10351979;28;20034;-48
2023/05/13 19:53:07;;;;;;;6.07;1.40;;;;;;;;;;10349403;28;20037;-52
2023/05/13 19:58:07;;;;;;;2.90;1.60;;;;;;;;;;10336478;28;20040;-49
2023/05/13 20:03:08;;;;;;;1.73;1.40;;;;;;;;;;10349442;28;20033;-51
2023/05/13 20:08:09;;;;;;;2.67;1.75;;;;;;;;;;10341143;28;20035;-48
2023/05/13 20:13:10;;;;;;;2.58;1.77;;;;;;;;;;10350465;28;20034;-47
2023/05/13 20:18:10;;;;;;;2.47;1.38;;;;;;;;;;10328812;28;20034;-48
2023/05/13 20:23:11;;;;;;;2.97;1.33;;;;;;;;;;10326797;28;20038;-51
2023/05/13 20:28:11;;;;;;;8.75;1.95;;;;;;;;;;10330800;28;20581;-49
2023/05/13 20:33:12;;;;;;;2.45;1.70;;;;;;;;;;10333422;28;20033;-47
2023/05/13 20:38:13;;;;;;;2.70;1.40;;;;;;;;;;10332313;28;20567;-48
2023/05/13 20:43:17;;;;;;;4.20;1.85;;;;;;;;;;10352493;28;20038;-49
2023/05/13 20:48:18;;;;;;;4.78;1.90;;;;;;;;;;10358389;28;20038;-49
2023/05/13 20:53:18;;;;;;;7.57;1.75;;;;;;;;;;10336670;28;20493;-49
2023/05/13 20:58:19;;;;;;;5.65;1.80;;;;;;;;;;10338757;28;20084;-51
2023/05/13 21:03:19;;;;;;;5.40;2.10;;;;;;;;;;10364690;28;20036;-50
2023/05/13 21:08:20;;;;;;;4.65;2.13;;;;;;;;;;10346118;28;20474;-48
2023/05/13 21:13:21;;;;;;;5.90;2.20;;;;;;;;;;10327971;28;20027;-51
2023/05/13 21:18:22;;;;;;;6.85;2.05;;;;;;;;;;10347287;28;20536;-48
2023/05/13 21:23:23;;;;;;;5.22;2.17;;;;;;;;;;10331702;28;20036;-51
2023/05/13 21:28:23;;;;;;;4.88;1.98;;;;;;;;;;10344755;28;20036;-48
2023/05/13 21:33:24;;;;;;;6.65;2.05;;;;;;;;;;10338434;28;20121;-51
2023/05/13 21:38:25;;;;;;;6.10;2.10;;;;;;;;;;10338649;28;20030;-48
2023/05/13 21:43:26;;;;;;;5.88;2.33;;;;;;;;;;10337349;28;20042;-47
2023/05/13 21:48:27;;;;;;;10.35;2.80;;;;;;;;;;10343722;28;20486;-53
2023/05/13 21:53:28;;;;;;;6.18;2.30;;;;;;;;;;10328347;28;20409;-52
2023/05/13 21:58:28;;;;;;;7.00;2.22;;;;;;;;;;10332204;28;20030;-51
2023/05/13 22:03:29;;;;;;;5.03;2.00;;;;;;;;;;10336672;28;20026;-50
2023/05/13 22:08:29;;;;;;;4.78;2.53;;;;;;;;;;10335776;28;20384;-51
2023/05/13 22:13:30;;;;;;;3.50;2.10;;;;;;;;;;10338520;28;20030;-52
2023/05/13 22:18:31;;;;;;;1.77;1.67;;;;;;;;;;10338151;28;20026;-51
2023/05/13 22:23:32;;;;;;;4.70;2.30;;;;;;;;;;10333295;28;20030;-53
2023/05/13 22:28:33;;;;;;;6.40;2.53;;;;;;;;;;10339267;28;20035;-49
2023/05/13 22:33:33;;;;;;;5.35;2.40;;;;;;;;;;10336204;28;20026;-49
2023/05/13 22:38:35;;;;;;;5.07;2.30;;;;;;;;;;10335683;28;20026;-51
2023/05/13 22:43:35;;;;;;;2.47;1.80;;;;;;;;;;10337465;28;20041;-49
2023/05/13 22:48:36;;;;;;;5.20;2.13;;;;;;;;;;10334613;28;20022;-49
2023/05/13 22:53:37;;;;;;;5.60;2.03;;;;;;;;;;10326398;28;20478;-48
2023/05/13 22:58:37;;;;;;;14.75;2.58;;;;;;;;;;10330861;28;20402;-50
2023/05/13 23:03:38;;;;;;;8.52;2.15;;;;;;;;;;10334455;28;20061;-49
2023/05/13 23:08:38;;;;;;;5.13;2.25;;;;;;;;;;10333174;28;20054;-50
2023/05/13 23:13:39;;;;;;;3.92;2.22;;;;;;;;;;10331653;28;20441;-50
2023/05/13 23:18:40;;;;;;;4.85;2.00;;;;;;;;;;10332604;28;20041;-49
2023/05/13 23:23:40;;;;;;;2.88;1.80;;;;;;;;;;10327943;28;20034;-55
2023/05/13 23:28:41;;;;;;;3.10;2.05;;;;;;;;;;10331517;28;20030;-51
2023/05/13 23:33:42;;;;;;;3.53;1.90;;;;;;;;;;10337332;28;20107;-52
2023/05/13 23:38:42;;;;;;;3.75;2.10;;;;;;;;;;10331794;28;20029;-52
2023/05/13 23:43:43;;;;;;;2.78;1.98;;;;;;;;;;10331625;28;20046;-53
2023/05/13 23:48:44;;;;;;;3.55;1.60;;;;;;;;;;10335470;28;20042;-53
2023/05/13 23:53:44;;;;;;;1.80;1.63;;;;;;;;;;10333851;28;20030;-52
2023/05/13 23:58:45;;;;;;;1.50;1.40;;;;;;;;;;10334647;28;20030;-54
